createdAt,value
2018-05-23T00:00:37.496Z,14.73
2018-05-23T00:03:05.272Z,13.13
2018-05-23T00:05:32.773Z,15.10
2018-05-23T00:08:00.272Z,13.10
2018-05-23T00:10:27.785Z,13.40
2018-05-23T00:12:55.288Z,13.17
2018-05-23T00:15:22.813Z,15.30
2018-05-23T00:17:50.301Z,14.70
2018-05-23T00:20:18.250Z,14.20
2018-05-23T00:22:45.749Z,14.37
2018-05-23T00:25:13.241Z,14.87
2018-05-23T00:27:40.859Z,15.80
2018-05-23T00:30:08.353Z,15.10
2018-05-23T00:32:35.872Z,15.87
2018-05-23T00:35:03.364Z,14.90
2018-05-23T00:37:30.889Z,12.47
2018-05-23T00:39:58.380Z,12.50
2018-05-23T00:42:26.244Z,12.93
2018-05-23T00:44:53.761Z,13.03
2018-05-23T00:47:21.269Z,11.43
2018-05-23T00:49:48.780Z,12.30
2018-05-23T00:52:16.378Z,11.77
2018-05-23T00:54:55.740Z,10.70
2018-05-23T00:57:23.237Z,10.33
2018-05-23T00:59:50.852Z,9.07
2018-05-23T01:02:18.337Z,9.70
2018-05-23T01:04:45.835Z,9.23
2018-05-23T01:07:13.363Z,10.20
2018-05-23T01:09:40.878Z,9.67
2018-05-23T01:12:08.404Z,9.60
2018-05-23T01:14:35.889Z,8.37
2018-05-23T01:17:03.878Z,8.87
2018-05-23T01:19:31.381Z,9.20
2018-05-23T01:21:58.857Z,8.67
2018-05-23T01:24:26.414Z,9.20
2018-05-23T01:26:53.913Z,9.63
2018-05-23T01:29:21.425Z,9.20
2018-05-23T01:31:48.914Z,10.23
2018-05-23T01:34:16.787Z,11.00
2018-05-23T01:36:44.272Z,9.67
2018-05-23T01:39:11.778Z,9.90
2018-05-23T01:41:39.290Z,9.57
2018-05-23T01:44:06.782Z,10.60
2018-05-23T01:46:34.324Z,9.80
2018-05-23T01:49:13.688Z,10.47
2018-05-23T01:51:41.259Z,10.30
2018-05-23T01:54:08.746Z,9.40
2018-05-23T01:56:36.399Z,10.97
2018-05-23T01:59:03.889Z,10.57
2018-05-23T02:01:31.484Z,9.90
2018-05-23T02:03:59.002Z,11.27
2018-05-23T02:06:26.493Z,9.83
2018-05-23T02:08:54.005Z,11.47
2018-05-23T02:11:21.497Z,10.63
2018-05-23T02:13:49.285Z,10.60
2018-05-23T02:16:16.776Z,10.90
2018-05-23T02:18:44.268Z,10.03
2018-05-23T02:21:11.789Z,10.23
2018-05-23T02:23:39.360Z,10.67
2018-05-23T02:26:06.813Z,9.97
2018-05-23T02:28:34.317Z,10.60
2018-05-23T02:31:01.854Z,9.93
2018-05-23T02:33:29.378Z,9.90
2018-05-23T02:35:56.882Z,9.43
2018-05-23T02:38:24.398Z,11.07
2018-05-23T02:40:51.893Z,10.13
2018-05-23T02:43:19.409Z,11.47
2018-05-23T02:45:46.917Z,11.00
2018-05-23T02:48:14.804Z,9.60
2018-05-23T02:50:42.297Z,10.27
2018-05-23T02:53:09.773Z,8.97
2018-05-23T02:55:37.310Z,10.10
2018-05-23T02:58:04.805Z,9.03
2018-05-23T03:00:32.313Z,8.77
2018-05-23T03:02:59.853Z,9.27
2018-05-23T03:05:27.504Z,9.20
2018-05-23T03:07:55.004Z,10.10
2018-05-23T03:10:22.501Z,10.73
2018-05-23T03:12:50.020Z,8.30
2018-05-23T03:15:17.505Z,8.20
2018-05-23T03:17:45.014Z,9.10
2018-05-23T03:20:12.529Z,11.00
2018-05-23T03:22:40.013Z,9.93
2018-05-23T03:25:07.537Z,9.77
2018-05-23T03:27:35.032Z,9.27
2018-05-23T03:30:02.567Z,9.70
2018-05-23T03:32:30.093Z,9.93
2018-05-23T03:34:57.577Z,9.77
2018-05-23T03:37:25.093Z,8.60
2018-05-23T03:39:52.605Z,9.40
2018-05-23T03:42:20.242Z,8.90
2018-05-23T03:44:47.737Z,10.43
2018-05-23T03:47:15.221Z,9.20
2018-05-23T03:49:42.737Z,9.33
2018-05-23T03:52:10.229Z,9.50
2018-05-23T03:54:37.779Z,10.40
2018-05-23T03:57:05.257Z,9.10
2018-05-23T03:59:44.725Z,8.30
2018-05-23T04:02:24.009Z,9.50
2018-05-23T04:05:04.470Z,8.50
2018-05-23T04:07:37.808Z,8.77
2018-05-23T04:10:06.461Z,10.10
2018-05-23T04:12:33.945Z,8.77
2018-05-23T04:15:01.433Z,8.93
2018-05-23T04:17:28.948Z,9.40
2018-05-23T04:19:56.425Z,8.97
2018-05-23T04:22:24.276Z,9.10
2018-05-23T04:24:51.780Z,9.23
2018-05-23T04:27:19.277Z,7.67
2018-05-23T04:29:46.797Z,7.90
2018-05-23T04:32:14.361Z,8.80
2018-05-23T04:34:42.077Z,8.00
2018-05-23T04:37:09.569Z,8.77
2018-05-23T04:39:37.052Z,8.27
2018-05-23T04:42:04.572Z,8.50
2018-05-23T04:44:32.065Z,8.40
2018-05-23T04:46:59.750Z,8.10
2018-05-23T04:49:27.237Z,8.10
2018-05-23T04:51:54.739Z,9.10
2018-05-23T04:54:22.269Z,8.90
2018-05-23T04:56:49.769Z,8.70
2018-05-23T04:59:17.273Z,8.70
2018-05-23T05:01:44.760Z,8.30
2018-05-23T05:04:12.432Z,8.90
2018-05-23T05:06:39.913Z,8.30
2018-05-23T05:09:07.444Z,8.63
2018-05-23T05:11:34.948Z,7.23
2018-05-23T05:14:02.443Z,9.40
2018-05-23T05:16:29.968Z,8.53
2018-05-23T05:18:57.452Z,7.40
2018-05-23T05:21:25.001Z,7.97
2018-05-23T05:23:52.499Z,8.33
2018-05-23T05:26:20.009Z,7.13
2018-05-23T05:28:47.546Z,8.37
2018-05-23T05:31:15.037Z,8.83
2018-05-23T05:33:42.541Z,8.00
2018-05-23T05:36:10.031Z,8.33
2018-05-23T05:38:37.557Z,7.43
2018-05-23T05:41:05.084Z,9.07
2018-05-23T05:43:32.577Z,9.87
2018-05-23T05:46:00.090Z,10.90
2018-05-23T05:48:27.569Z,7.63
2018-05-23T05:50:55.090Z,9.00
2018-05-23T05:53:22.568Z,7.63
2018-05-23T05:55:50.230Z,8.27
2018-05-23T05:58:17.729Z,8.87
2018-05-23T06:00:45.205Z,8.63
2018-05-23T06:03:12.729Z,9.73
2018-05-23T06:05:40.213Z,8.83
2018-05-23T06:08:07.721Z,9.17
2018-05-23T06:10:35.221Z,10.27
2018-05-23T06:13:03.162Z,9.37
2018-05-23T06:15:30.818Z,9.60
2018-05-23T06:17:58.309Z,11.27
2018-05-23T06:20:25.821Z,11.30
2018-05-23T06:22:53.303Z,9.30
2018-05-23T06:25:20.835Z,10.67
2018-05-23T06:27:48.321Z,9.63
2018-05-23T06:30:16.276Z,9.83
2018-05-23T06:32:43.769Z,10.67
2018-05-23T06:35:11.276Z,10.40
2018-05-23T06:37:38.807Z,10.20
2018-05-23T06:40:06.300Z,10.30
2018-05-23T06:42:33.805Z,9.67
2018-05-23T06:45:01.289Z,9.67
2018-05-23T06:47:28.822Z,10.47
2018-05-23T06:49:56.330Z,10.30
2018-05-23T06:52:23.829Z,10.27
2018-05-23T06:54:51.382Z,10.90
2018-05-23T06:57:18.886Z,10.07
2018-05-23T06:59:46.413Z,11.00
2018-05-23T07:02:13.905Z,10.67
2018-05-23T07:04:41.856Z,11.13
2018-05-23T07:07:09.341Z,9.63
2018-05-23T07:09:36.832Z,10.47
2018-05-23T07:12:04.349Z,9.43
2018-05-23T07:14:31.860Z,11.70
2018-05-23T07:16:59.454Z,10.97
2018-05-23T07:19:26.885Z,11.03
2018-05-23T07:21:54.628Z,9.93
2018-05-23T07:24:22.129Z,11.00
2018-05-23T07:26:49.625Z,11.40
2018-05-23T07:29:17.153Z,10.13
2018-05-23T07:31:44.668Z,10.47
2018-05-23T07:34:12.201Z,9.03
2018-05-23T07:36:39.697Z,10.40
2018-05-23T07:39:07.225Z,10.90
2018-05-23T07:41:34.749Z,11.90
2018-05-23T07:44:02.237Z,10.50
2018-05-23T07:46:29.748Z,11.43
2018-05-23T07:48:57.245Z,12.13
2018-05-23T07:51:24.761Z,11.60
2018-05-23T07:53:52.277Z,12.27
2018-05-23T07:56:20.048Z,11.00
2018-05-23T07:58:47.541Z,11.50
2018-05-23T08:01:15.036Z,11.23
2018-05-23T08:03:42.556Z,13.10
2018-05-23T08:06:10.062Z,12.63
2018-05-23T08:08:37.577Z,11.60
2018-05-23T08:11:05.077Z,11.00
2018-05-23T08:13:32.613Z,12.57
2018-05-23T08:30:14.582Z,11.43
2018-05-23T08:32:42.064Z,11.93
2018-05-23T08:35:09.552Z,10.70
2018-05-23T08:37:37.029Z,12.40
2018-05-23T08:40:04.489Z,11.10
2018-05-23T08:42:31.963Z,10.00
2018-05-23T08:44:59.424Z,9.57
2018-05-23T08:47:27.154Z,10.90
2018-05-23T08:49:54.623Z,11.60
2018-05-23T08:52:22.090Z,9.43
2018-05-23T08:54:49.610Z,10.50
2018-05-23T08:57:17.084Z,10.13
2018-05-23T08:59:44.581Z,11.87
2018-05-23T09:02:12.041Z,10.63
2018-05-23T09:04:39.663Z,10.23
2018-05-23T09:07:07.137Z,10.50
2018-05-23T09:09:34.613Z,9.17
2018-05-23T09:12:02.103Z,8.40
2018-05-23T09:14:29.598Z,11.37
2018-05-23T09:16:57.094Z,9.57
2018-05-23T09:19:24.575Z,9.90
2018-05-23T09:21:52.540Z,9.03
2018-05-23T09:24:19.996Z,9.77
2018-05-23T09:26:47.444Z,6.23
2018-05-23T09:29:14.907Z,6.67
2018-05-23T09:31:42.360Z,5.83
2018-05-23T09:34:09.832Z,6.57
2018-05-23T09:36:37.287Z,5.80
2018-05-23T09:39:05.558Z,6.03
2018-05-23T09:41:32.999Z,5.40
2018-05-23T09:44:00.457Z,5.60
2018-05-23T09:46:27.935Z,6.20
2018-05-23T09:48:55.388Z,6.30
2018-05-23T09:51:22.853Z,6.23
2018-05-23T09:53:50.299Z,6.40
2018-05-23T09:56:18.050Z,6.37
2018-05-23T09:58:45.513Z,5.90
2018-05-23T10:01:12.959Z,6.70
2018-05-23T10:03:40.479Z,6.13
2018-05-23T10:06:07.919Z,6.20
2018-05-23T10:08:35.403Z,6.90
2018-05-23T10:11:02.866Z,6.00
2018-05-23T10:13:30.760Z,6.10
2018-05-23T10:15:58.203Z,6.27
2018-05-23T10:18:25.651Z,5.47
2018-05-23T10:20:53.140Z,6.50
2018-05-23T10:23:20.596Z,6.43
2018-05-23T10:25:48.075Z,6.60
2018-05-23T10:28:15.524Z,7.60
2018-05-23T10:30:43.048Z,6.63
2018-05-23T10:33:10.500Z,7.77
2018-05-23T10:35:37.958Z,8.90
2018-05-23T10:38:05.445Z,7.37
2018-05-23T10:40:32.891Z,6.97
2018-05-23T10:43:00.356Z,8.57
2018-05-23T10:45:27.809Z,6.93
2018-05-23T10:47:55.279Z,6.67
2018-05-23T10:50:22.723Z,6.20
2018-05-23T10:52:50.191Z,6.13
2018-05-23T10:55:17.640Z,7.60
2018-05-23T10:57:45.119Z,6.60
2018-05-23T11:00:12.600Z,5.20
2018-05-23T11:02:40.031Z,6.10
2018-05-23T11:05:07.499Z,6.53
2018-05-23T11:07:34.946Z,6.10
2018-05-23T11:10:02.417Z,6.80
2018-05-23T11:12:29.867Z,6.03
2018-05-23T11:14:57.399Z,6.47
2018-05-23T11:17:24.828Z,6.60
2018-05-23T11:19:52.279Z,5.70
2018-05-23T11:22:19.767Z,6.83
2018-05-23T11:24:47.220Z,6.73
2018-05-23T11:27:14.695Z,5.53
2018-05-23T11:29:42.202Z,6.00
2018-05-23T11:32:09.890Z,5.07
2018-05-23T11:34:37.349Z,5.60
2018-05-23T11:37:04.821Z,5.47
2018-05-23T11:39:32.303Z,5.13
2018-05-23T11:41:59.749Z,6.00
2018-05-23T11:44:27.217Z,5.50
2018-05-23T11:46:54.680Z,5.80
2018-05-23T11:49:22.496Z,6.03
2018-05-23T11:51:49.949Z,5.67
2018-05-23T11:54:17.404Z,5.90
2018-05-23T11:56:44.875Z,6.80
2018-05-23T11:59:12.339Z,5.77
2018-05-23T12:01:39.824Z,6.07
2018-05-23T12:04:07.270Z,6.83
2018-05-23T12:06:34.760Z,6.60
2018-05-23T12:09:02.220Z,6.47
2018-05-23T12:11:29.683Z,7.90
2018-05-23T12:13:57.155Z,7.67
2018-05-23T12:16:24.621Z,6.30
2018-05-23T12:18:52.096Z,7.20
2018-05-23T12:21:19.543Z,8.30
2018-05-23T12:23:47.283Z,7.83
2018-05-23T12:26:14.723Z,6.97
2018-05-23T12:28:42.196Z,6.30
2018-05-23T12:31:09.667Z,6.97
2018-05-23T12:33:37.116Z,7.87
2018-05-23T12:36:04.588Z,8.10
2018-05-23T12:38:32.167Z,9.07
2018-05-23T12:40:59.867Z,7.60
2018-05-23T12:43:27.344Z,7.87
2018-05-23T12:45:54.788Z,8.00
2018-05-23T12:48:22.308Z,8.33
2018-05-23T12:50:49.747Z,7.73
2018-05-23T12:53:17.219Z,7.50
2018-05-23T12:55:44.667Z,8.27
2018-05-23T12:58:12.358Z,8.57
2018-05-23T13:00:39.805Z,8.67
2018-05-23T13:03:07.260Z,8.70
2018-05-23T13:05:34.728Z,7.80
2018-05-23T13:08:02.186Z,8.03
2018-05-23T13:10:29.689Z,8.27
2018-05-23T13:12:57.140Z,7.47
2018-05-23T13:15:25.043Z,8.90
2018-05-23T13:17:52.507Z,8.53
2018-05-23T13:20:19.962Z,8.53
2018-05-23T13:22:47.440Z,8.23
2018-05-23T13:25:14.907Z,7.57
2018-05-23T13:27:42.383Z,7.70
2018-05-23T13:30:09.840Z,7.40
2018-05-23T13:32:37.332Z,7.60
2018-05-23T13:35:04.780Z,7.53
2018-05-23T13:37:32.248Z,8.40
2018-05-23T13:39:59.715Z,7.80
2018-05-23T13:42:27.167Z,8.10
2018-05-23T13:44:54.666Z,8.23
2018-05-23T13:47:22.108Z,8.90
2018-05-23T13:49:50.168Z,8.33
2018-05-23T13:52:17.608Z,8.20
2018-05-23T13:54:45.092Z,7.80
2018-05-23T13:57:12.571Z,7.90
2018-05-23T13:59:40.024Z,8.10
2018-05-23T14:02:07.495Z,7.90
2018-05-23T14:04:34.940Z,9.37
2018-05-23T14:07:02.444Z,8.10
2018-05-23T14:09:29.895Z,9.70
2018-05-23T14:11:57.347Z,9.57
2018-05-23T14:14:24.832Z,7.77
2018-05-23T14:16:52.275Z,7.90
2018-05-23T14:19:19.788Z,8.20
2018-05-23T14:21:47.212Z,9.00
2018-05-23T14:24:14.705Z,8.13
2018-05-23T14:26:42.184Z,7.70
2018-05-23T14:29:09.636Z,7.77
2018-05-23T14:31:37.132Z,7.13
2018-05-23T14:34:04.605Z,7.37
2018-05-23T14:36:32.071Z,7.60
2018-05-23T14:38:59.548Z,7.83
2018-05-23T14:41:27.012Z,7.10
2018-05-23T14:43:54.476Z,6.07
2018-05-23T14:46:21.920Z,7.47
2018-05-23T14:48:49.715Z,6.60
2018-05-23T14:51:17.183Z,6.90
2018-05-23T14:53:44.632Z,6.67
2018-05-23T14:56:12.144Z,8.20
2018-05-23T14:58:39.568Z,6.60
2018-05-23T15:01:07.494Z,6.07
2018-05-23T15:03:34.944Z,5.27
2018-05-23T15:06:02.421Z,6.57
2018-05-23T15:08:29.946Z,5.40
2018-05-23T15:10:57.364Z,5.93
2018-05-23T15:13:25.137Z,4.87
2018-05-23T15:15:52.588Z,4.80
2018-05-23T15:18:20.043Z,4.63
2018-05-23T15:20:47.519Z,5.60
2018-05-23T15:23:14.972Z,4.93
2018-05-23T15:25:42.587Z,5.10
2018-05-23T15:28:10.032Z,5.77
2018-05-23T15:30:37.505Z,5.70
2018-05-23T15:33:04.976Z,6.70
2018-05-23T15:35:32.427Z,6.60
2018-05-23T15:37:59.924Z,6.43
2018-05-23T15:40:27.381Z,6.17
2018-05-23T15:42:54.843Z,7.60
2018-05-23T15:45:22.336Z,6.87
2018-05-23T15:47:49.779Z,7.10
2018-05-23T15:50:17.287Z,7.63
2018-05-23T15:52:44.765Z,7.50
2018-05-23T15:55:12.210Z,6.83
2018-05-23T15:57:39.699Z,8.17
2018-05-23T16:00:07.160Z,6.80
2018-05-23T16:02:34.627Z,8.07
2018-05-23T16:05:02.080Z,7.17
2018-05-23T16:07:29.597Z,7.20
2018-05-23T16:09:57.056Z,8.07
2018-05-23T16:12:24.514Z,7.50
2018-05-23T16:14:52.047Z,7.53
2018-05-23T16:17:19.451Z,7.97
2018-05-23T16:19:46.954Z,6.80
2018-05-23T16:22:14.403Z,7.30
2018-05-23T16:24:42.196Z,8.00
2018-05-23T16:27:09.652Z,7.90
2018-05-23T16:29:37.100Z,9.40
2018-05-23T16:32:04.572Z,8.67
2018-05-23T16:34:32.044Z,9.17
2018-05-23T16:36:59.515Z,8.80
2018-05-23T16:39:26.984Z,8.37
2018-05-23T16:41:54.628Z,7.87
2018-05-23T16:44:22.138Z,8.03
2018-05-23T16:46:49.559Z,9.80
2018-05-23T16:49:17.028Z,8.90
2018-05-23T16:51:44.481Z,9.20
2018-05-23T16:54:12.000Z,8.70
2018-05-23T16:56:39.460Z,9.87
2018-05-23T16:59:06.947Z,8.90
2018-05-23T17:01:34.400Z,9.30
2018-05-23T17:04:01.853Z,9.33
2018-05-23T17:06:29.429Z,9.13
2018-05-23T17:08:56.800Z,8.47
2018-05-23T17:11:24.281Z,9.80
2018-05-23T17:13:51.743Z,8.07
2018-05-23T17:16:19.355Z,10.67
2018-05-23T17:18:46.894Z,8.07
2018-05-23T17:21:14.330Z,9.03
2018-05-23T17:23:41.800Z,7.60
2018-05-23T17:26:09.248Z,7.03
2018-05-23T17:28:36.765Z,6.63
2018-05-23T17:31:04.215Z,5.53
2018-05-23T17:33:31.959Z,5.87
2018-05-23T17:35:59.323Z,6.53
2018-05-23T17:38:26.776Z,6.10
2018-05-23T17:40:54.255Z,6.00
2018-05-23T17:43:21.713Z,5.90
2018-05-23T17:45:49.202Z,6.43
2018-05-23T17:48:16.679Z,6.50
2018-05-23T17:50:44.273Z,8.00
2018-05-23T17:53:11.742Z,8.43
2018-05-23T17:55:39.196Z,7.90
2018-05-23T17:58:06.664Z,7.70
2018-05-23T18:00:34.131Z,7.53
2018-05-23T18:03:01.607Z,7.90
2018-05-23T18:05:29.065Z,9.00
2018-05-23T18:07:56.571Z,8.97
2018-05-23T18:10:24.032Z,8.90
2018-05-23T18:12:51.508Z,7.90
2018-05-23T18:15:18.995Z,8.37
2018-05-23T18:17:46.474Z,6.70
2018-05-23T18:20:14.012Z,7.23
2018-05-23T18:22:41.468Z,7.30
2018-05-23T18:25:08.981Z,7.80
2018-05-23T18:27:36.437Z,9.57
2018-05-23T18:30:04.693Z,9.33
2018-05-23T18:32:32.198Z,8.27
2018-05-23T18:34:59.681Z,10.30
2018-05-23T18:37:27.193Z,8.57
2018-05-23T18:39:54.659Z,8.67
2018-05-23T18:42:23.157Z,9.67
2018-05-23T18:44:50.624Z,8.47
2018-05-23T18:47:18.476Z,8.43
2018-05-23T18:49:46.073Z,10.10
2018-05-23T18:52:13.545Z,7.87
2018-05-23T18:54:41.019Z,8.90
2018-05-23T18:57:08.637Z,10.00
2018-05-23T18:59:36.252Z,10.43
2018-05-23T19:02:03.726Z,10.60
2018-05-23T19:04:31.236Z,10.90
2018-05-23T19:06:58.752Z,9.33
2018-05-23T19:09:26.217Z,7.90
2018-05-23T19:11:53.729Z,10.30
2018-05-23T19:14:21.189Z,9.57
2018-05-23T19:16:48.848Z,8.30
2018-05-23T19:19:18.085Z,9.97
2018-05-23T19:21:45.588Z,9.20
2018-05-23T19:24:13.107Z,9.63
2018-05-23T19:26:41.472Z,10.70
2018-05-23T19:29:08.961Z,9.70
2018-05-23T19:31:36.428Z,10.50
2018-05-23T19:34:04.127Z,10.30
2018-05-23T19:36:31.616Z,10.10
2018-05-23T19:38:59.151Z,12.63
2018-05-23T19:41:26.642Z,10.23
2018-05-23T19:43:54.114Z,10.83
2018-05-23T19:46:21.603Z,11.70
2018-05-23T19:48:49.084Z,11.03
2018-05-23T19:51:16.819Z,10.27
2018-05-23T19:53:44.289Z,11.30
2018-05-23T19:56:11.826Z,11.50
2018-05-23T19:58:39.321Z,11.00
2018-05-23T20:01:07.769Z,12.00
2018-05-23T20:03:35.300Z,10.57
2018-05-23T20:06:02.764Z,12.03
2018-05-23T20:08:30.260Z,11.97
2018-05-23T20:10:57.720Z,12.17
2018-05-23T20:13:25.188Z,13.70
2018-05-23T20:15:52.676Z,12.63
2018-05-23T20:18:20.162Z,12.80
2018-05-23T20:20:47.697Z,12.47
2018-05-23T20:23:15.139Z,13.03
2018-05-23T20:25:42.814Z,12.17
2018-05-23T20:28:10.276Z,13.30
2018-05-23T20:30:37.735Z,13.90
2018-05-23T20:33:05.995Z,13.70
2018-05-23T20:35:33.455Z,14.33
2018-05-23T20:38:01.005Z,16.33
2018-05-23T20:40:28.467Z,15.73
2018-05-23T20:42:55.960Z,16.57
2018-05-23T20:45:23.460Z,15.47
2018-05-23T20:47:50.925Z,16.70
2018-05-23T20:50:18.560Z,15.13
2018-05-23T20:52:46.031Z,16.47
2018-05-23T20:55:13.503Z,16.97
2018-05-23T20:57:41.000Z,17.70
2018-05-23T21:00:08.464Z,16.97
2018-05-23T21:02:35.975Z,16.50
2018-05-23T21:05:03.483Z,18.50
2018-05-23T21:07:30.928Z,16.17
2018-05-23T21:09:58.408Z,18.53
2018-05-23T21:12:25.867Z,19.30
2018-05-23T21:14:53.541Z,19.17
2018-05-23T21:17:21.006Z,20.43
2018-05-23T21:19:48.472Z,19.10
2018-05-23T21:22:15.970Z,21.20
2018-05-23T21:24:43.436Z,19.67
2018-05-23T21:27:10.945Z,19.97
2018-05-23T21:29:38.403Z,18.63
2018-05-23T21:32:05.865Z,21.30
2018-05-23T21:34:33.425Z,20.40
2018-05-23T21:37:00.837Z,22.73
2018-05-23T21:39:28.449Z,16.37
2018-05-23T21:41:55.960Z,20.73
2018-05-23T21:44:23.415Z,19.70
2018-05-23T21:46:50.899Z,20.40
2018-05-23T21:49:18.356Z,19.57
2018-05-23T21:51:45.940Z,20.10
2018-05-23T21:54:13.412Z,18.70
2018-05-23T21:56:40.903Z,20.97
2018-05-23T21:59:08.359Z,21.50
2018-05-23T22:01:35.816Z,20.40
2018-05-23T22:04:03.300Z,18.37
2018-05-23T22:06:30.756Z,17.60
2018-05-23T22:08:58.248Z,14.03
2018-05-23T22:11:25.708Z,15.77
2018-05-23T22:13:53.199Z,17.10
2018-05-23T22:16:20.656Z,16.30
2018-05-23T22:18:48.136Z,16.30
2018-05-23T22:21:15.625Z,17.00
2018-05-23T22:23:43.088Z,16.27
2018-05-23T22:26:10.568Z,17.87
2018-05-23T22:28:38.048Z,17.90
2018-05-23T22:31:05.558Z,18.83
2018-05-23T22:33:33.029Z,16.10
2018-05-23T22:36:00.562Z,16.20
2018-05-23T22:38:28.032Z,16.27
2018-05-23T22:40:55.492Z,15.17
2018-05-23T22:43:22.971Z,16.13
2018-05-23T22:45:50.431Z,17.63
2018-05-23T22:48:18.107Z,16.00
2018-05-23T22:50:45.556Z,17.10
2018-05-23T22:53:13.031Z,17.67
2018-05-23T22:55:40.509Z,16.97
2018-05-23T22:58:07.969Z,17.17
2018-05-23T23:00:35.476Z,16.73
2018-05-23T23:03:02.932Z,17.37
2018-05-23T23:05:30.630Z,17.10
2018-05-23T23:07:58.107Z,17.57
2018-05-23T23:10:25.579Z,16.10
2018-05-23T23:12:53.055Z,17.50
2018-05-23T23:15:20.508Z,14.40
2018-05-23T23:17:47.992Z,17.00
2018-05-23T23:20:15.447Z,16.80
2018-05-23T23:22:43.303Z,15.60
2018-05-23T23:25:10.759Z,16.87
2018-05-23T23:27:38.225Z,18.00
2018-05-23T23:30:05.704Z,18.07
2018-05-23T23:32:33.155Z,17.47
2018-05-23T23:35:00.693Z,16.50
2018-05-23T23:37:28.163Z,18.83
2018-05-23T23:39:55.651Z,18.43
2018-05-23T23:42:23.111Z,19.60
2018-05-23T23:44:50.587Z,17.30
2018-05-23T23:47:18.067Z,18.87
2018-05-23T23:49:45.527Z,18.40
2018-05-23T23:52:13.048Z,17.80
2018-05-23T23:54:40.603Z,17.33
2018-05-23T23:57:08.171Z,16.80
2018-05-23T23:59:35.632Z,15.73
